createdAt,value
2024-05-09T00:00:39.266Z,7.58
2024-05-09T00:03:46.886Z,7.57
2024-05-09T00:06:51.743Z,7.54
2024-05-09T00:09:50.910Z,7.52
2024-05-09T00:12:55.698Z,7.52
2024-05-09T00:16:01.753Z,7.45
2024-05-09T00:19:00.269Z,7.48
2024-05-09T00:22:06.731Z,7.51
2024-05-09T00:25:06.131Z,7.52
2024-05-09T00:28:10.705Z,7.55
2024-05-09T00:31:23.728Z,7.56
2024-05-09T00:34:21.880Z,7.56
2024-05-09T00:37:26.741Z,7.58
2024-05-09T00:40:35.360Z,7.55
2024-05-09T00:43:44.805Z,7.57
2024-05-09T00:46:44.484Z,7.59
2024-05-09T00:49:49.879Z,7.63
2024-05-09T00:52:55.775Z,7.68
2024-05-09T00:55:56.800Z,7.73
2024-05-09T00:59:03.854Z,7.74
2024-05-09T01:02:02.273Z,7.74
2024-05-09T01:05:06.866Z,7.72
2024-05-09T01:08:06.057Z,7.70
2024-05-09T01:11:10.877Z,7.68
2024-05-09T01:14:09.143Z,7.70
2024-05-09T01:17:15.826Z,7.68
2024-05-09T01:20:20.167Z,7.66
2024-05-09T01:23:33.923Z,7.67
2024-05-09T01:26:32.136Z,7.65
2024-05-09T01:29:36.866Z,7.60
2024-05-09T01:32:35.267Z,7.58
2024-05-09T01:35:46.782Z,7.54
2024-05-09T01:38:46.106Z,7.52
2024-05-09T01:41:50.805Z,7.50
2024-05-09T01:44:56.781Z,7.46
2024-05-09T01:47:56.142Z,7.42
2024-05-09T01:51:00.897Z,7.41
2024-05-09T01:54:06.895Z,7.36
2024-05-09T01:57:05.850Z,7.33
2024-05-09T02:00:07.642Z,7.30
2024-05-09T02:03:16.480Z,7.25
2024-05-09T02:06:22.817Z,7.23
2024-05-09T02:09:29.795Z,7.14
2024-05-09T02:12:28.216Z,7.12
2024-05-09T02:15:33.824Z,7.06
2024-05-09T02:18:32.155Z,7.04
2024-05-09T02:21:40.813Z,6.99
2024-05-09T02:24:46.818Z,6.94
2024-05-09T02:27:45.204Z,6.87
2024-05-09T02:30:49.822Z,6.83
2024-05-09T02:33:55.004Z,6.79
2024-05-09T02:36:56.144Z,6.77
2024-05-09T02:40:00.842Z,6.73
2024-05-09T02:42:59.932Z,6.66
2024-05-09T02:46:04.865Z,6.61
2024-05-09T02:49:04.076Z,6.55
2024-05-09T02:52:09.868Z,6.55
2024-05-09T02:55:14.955Z,6.49
2024-05-09T02:58:13.875Z,6.44
2024-05-09T03:01:12.112Z,6.44
2024-05-09T03:04:17.890Z,6.34
2024-05-09T03:07:22.871Z,6.28
2024-05-09T03:10:25.686Z,6.22
2024-05-09T03:13:33.868Z,6.17
2024-05-09T03:16:38.881Z,6.13
2024-05-09T03:19:38.337Z,6.10
2024-05-09T03:22:43.899Z,6.09
2024-05-09T03:25:57.154Z,6.07
2024-05-09T03:29:01.895Z,6.06
2024-05-09T03:32:01.390Z,6.07
2024-05-09T03:35:13.006Z,6.09
2024-05-09T03:38:19.029Z,6.04
2024-05-09T03:41:23.953Z,6.02
2024-05-09T03:44:22.247Z,6.04
2024-05-09T03:47:27.111Z,6.01
2024-05-09T03:50:35.557Z,6.04
2024-05-09T03:53:41.999Z,6.03
2024-05-09T03:56:40.260Z,6.02
2024-05-09T03:59:45.898Z,6.04
2024-05-09T04:02:54.003Z,6.05
2024-05-09T04:05:53.067Z,6.06
2024-05-09T04:08:57.888Z,6.08
2024-05-09T04:11:57.240Z,6.14
2024-05-09T04:15:01.913Z,6.16
2024-05-09T04:18:01.914Z,6.17
2024-05-09T04:21:09.021Z,6.20
2024-05-09T04:24:08.013Z,6.29
2024-05-09T04:27:12.927Z,6.36
2024-05-09T04:30:26.231Z,6.36
2024-05-09T04:33:41.058Z,6.41
2024-05-09T04:36:41.624Z,6.50
2024-05-09T04:39:46.986Z,6.56
2024-05-09T04:42:54.959Z,6.53
2024-05-09T04:45:53.500Z,6.65
2024-05-09T04:49:00.031Z,6.75
2024-05-09T04:51:59.310Z,6.85
2024-05-09T04:55:04.941Z,6.91
2024-05-09T04:58:12.151Z,6.96
2024-05-09T05:01:17.985Z,7.02
2024-05-09T05:04:16.442Z,7.10
2024-05-09T05:07:21.950Z,7.19
2024-05-09T05:10:25.494Z,7.27
2024-05-09T05:13:36.724Z,7.35
2024-05-09T05:16:36.369Z,7.43
2024-05-09T05:19:42.022Z,7.51
2024-05-09T05:22:43.714Z,7.63
2024-05-09T05:25:50.183Z,7.70
2024-05-09T05:28:55.097Z,7.79
2024-05-09T05:31:54.143Z,7.90
2024-05-09T05:34:59.020Z,7.98
2024-05-09T05:37:57.124Z,8.05
2024-05-09T05:41:02.102Z,8.12
2024-05-09T05:44:00.100Z,8.22
2024-05-09T05:47:04.998Z,8.36
2024-05-09T05:50:07.081Z,8.46
2024-05-09T05:53:16.074Z,8.58
2024-05-09T05:56:21.095Z,8.69
2024-05-09T05:59:19.417Z,8.81
2024-05-09T06:02:24.074Z,8.92
2024-05-09T06:05:29.167Z,9.07
2024-05-09T06:08:35.035Z,9.20
2024-05-09T06:11:33.374Z,9.36
2024-05-09T06:14:39.092Z,9.49
2024-05-09T06:17:38.429Z,9.64
2024-05-09T06:20:44.514Z,9.82
2024-05-09T06:23:47.454Z,9.95
2024-05-09T06:26:42.375Z,10.15
2024-05-09T06:29:27.892Z,10.31
2024-05-09T06:32:13.447Z,10.47
2024-05-09T06:34:59.035Z,10.85
2024-05-09T06:37:44.635Z,11.29
2024-05-09T06:40:37.161Z,11.59
2024-05-09T06:43:24.743Z,11.85
2024-05-09T06:46:10.146Z,12.18
2024-05-09T06:48:57.051Z,12.39
2024-05-09T06:51:42.879Z,12.53
2024-05-09T06:54:28.227Z,12.67
2024-05-09T06:57:13.928Z,12.86
2024-05-09T07:00:00.881Z,13.05
2024-05-09T07:02:46.391Z,13.21
2024-05-09T07:05:31.824Z,13.34
2024-05-09T07:08:18.002Z,13.37
2024-05-09T07:11:04.558Z,13.52
2024-05-09T07:13:50.343Z,13.60
2024-05-09T07:16:36.082Z,13.72
2024-05-09T07:19:21.398Z,13.80
2024-05-09T07:22:07.237Z,13.83
2024-05-09T07:24:53.807Z,13.88
2024-05-09T07:27:39.204Z,13.88
2024-05-09T07:30:32.671Z,13.97
2024-05-09T07:33:27.385Z,13.99
2024-05-09T07:36:19.216Z,14.09
2024-05-09T07:39:05.817Z,14.19
2024-05-09T07:41:51.329Z,14.31
2024-05-09T07:44:36.719Z,14.41
2024-05-09T07:48:56.521Z,14.50
2024-05-09T07:53:37.830Z,14.68
2024-05-09T07:56:23.161Z,14.77
2024-05-09T07:59:09.798Z,14.86
2024-05-09T08:01:55.679Z,14.93
2024-05-09T08:04:41.269Z,14.91
2024-05-09T08:07:26.831Z,14.87
2024-05-09T08:10:15.398Z,14.95
2024-05-09T08:13:04.711Z,15.04
2024-05-09T08:15:51.795Z,15.18
2024-05-09T08:18:37.594Z,15.30
2024-05-09T08:21:23.604Z,15.35
2024-05-09T08:24:10.561Z,15.43
2024-05-09T08:26:55.868Z,15.43
2024-05-09T08:29:41.470Z,15.52
2024-05-09T08:32:27.527Z,15.58
2024-05-09T08:35:12.746Z,15.59
2024-05-09T08:37:58.275Z,15.62
2024-05-09T08:40:43.852Z,15.78
2024-05-09T08:43:30.218Z,15.89
2024-05-09T08:46:18.524Z,15.93
2024-05-09T08:49:04.769Z,15.94
2024-05-09T08:51:50.576Z,16.03
2024-05-09T08:54:36.006Z,16.05
2024-05-09T08:57:22.800Z,16.13
2024-05-09T09:00:12.723Z,16.22
2024-05-09T09:03:02.809Z,16.23
2024-05-09T09:06:12.698Z,16.26
2024-05-09T09:08:59.408Z,16.28
2024-05-09T09:11:45.281Z,16.34
2024-05-09T09:14:30.532Z,16.31
2024-05-09T09:17:16.886Z,16.36
2024-05-09T09:20:02.695Z,16.30
2024-05-09T09:22:48.270Z,16.32
2024-05-09T09:25:33.991Z,16.40
2024-05-09T09:28:23.418Z,16.45
2024-05-09T09:31:09.091Z,16.46
2024-05-09T09:33:54.919Z,16.43
2024-05-09T09:36:42.939Z,16.57
2024-05-09T09:39:31.861Z,16.72
2024-05-09T09:42:18.488Z,16.77
2024-05-09T09:45:05.779Z,16.86
2024-05-09T09:47:57.147Z,16.92
2024-05-09T09:50:43.422Z,16.96
2024-05-09T09:53:29.379Z,17.10
2024-05-09T09:56:18.100Z,17.04
2024-05-09T09:59:04.737Z,16.98
2024-05-09T10:01:50.547Z,17.09
2024-05-09T10:04:36.770Z,17.20
2024-05-09T10:07:23.015Z,17.24
2024-05-09T10:10:11.026Z,17.22
2024-05-09T10:13:07.666Z,17.23
2024-05-09T10:15:54.476Z,17.21
2024-05-09T10:18:41.495Z,17.30
2024-05-09T10:21:27.538Z,17.42
2024-05-09T10:24:12.939Z,17.54
2024-05-09T10:26:58.567Z,17.64
2024-05-09T10:29:58.433Z,17.69
2024-05-09T10:32:44.995Z,17.61
2024-05-09T10:35:32.132Z,17.68
2024-05-09T10:38:18.241Z,17.77
2024-05-09T10:41:04.922Z,17.73
2024-05-09T10:43:51.425Z,17.75
2024-05-09T10:46:37.356Z,17.82
2024-05-09T10:49:23.143Z,17.78
2024-05-09T10:52:08.942Z,17.87
2024-05-09T10:54:54.868Z,17.93
2024-05-09T10:57:41.032Z,17.86
2024-05-09T11:00:36.109Z,17.78
2024-05-09T11:03:25.854Z,17.81
2024-05-09T11:06:11.939Z,17.79
2024-05-09T11:08:57.863Z,17.67
2024-05-09T11:11:43.291Z,17.72
2024-05-09T11:14:28.667Z,17.95
2024-05-09T11:17:14.299Z,18.11
2024-05-09T11:20:00.570Z,18.35
2024-05-09T11:22:46.151Z,18.34
2024-05-09T11:25:33.302Z,18.36
2024-05-09T11:28:19.424Z,18.32
2024-05-09T11:31:10.396Z,18.48
2024-05-09T11:33:56.670Z,18.63
2024-05-09T11:36:41.974Z,18.72
2024-05-09T11:39:27.521Z,18.65
2024-05-09T11:42:13.090Z,18.65
2024-05-09T11:44:58.397Z,18.72
2024-05-09T11:47:44.174Z,18.80
2024-05-09T11:50:34.683Z,18.83
2024-05-09T11:53:21.286Z,18.95
2024-05-09T11:56:07.359Z,19.00
2024-05-09T11:58:53.315Z,19.10
2024-05-09T12:01:38.693Z,19.28
2024-05-09T12:04:24.465Z,19.26
2024-05-09T12:07:12.656Z,19.04
2024-05-09T12:09:58.277Z,19.00
2024-05-09T12:12:44.114Z,18.95
2024-05-09T12:15:29.457Z,18.80
2024-05-09T12:18:15.024Z,18.97
2024-05-09T12:21:01.643Z,19.01
2024-05-09T12:23:47.208Z,19.02
2024-05-09T12:26:33.085Z,19.19
2024-05-09T12:29:18.367Z,19.39
2024-05-09T12:32:03.936Z,19.48
2024-05-09T12:34:49.487Z,19.49
2024-05-09T12:37:34.907Z,19.49
2024-05-09T12:40:26.859Z,19.62
2024-05-09T12:43:19.917Z,19.51
2024-05-09T12:46:05.794Z,19.34
2024-05-09T12:48:51.950Z,19.43
2024-05-09T12:51:38.350Z,19.33
2024-05-09T12:54:23.572Z,19.24
2024-05-09T12:57:09.390Z,19.20
2024-05-09T12:59:55.821Z,19.17
2024-05-09T13:02:41.660Z,19.28
2024-05-09T13:05:27.397Z,19.39
2024-05-09T13:08:16.304Z,19.45
2024-05-09T13:11:01.831Z,19.67
2024-05-09T13:13:47.071Z,19.52
2024-05-09T13:16:32.866Z,19.41
2024-05-09T13:19:18.597Z,19.44
2024-05-09T13:22:04.262Z,19.61
2024-05-09T13:24:49.672Z,19.81
2024-05-09T13:27:35.197Z,19.80
2024-05-09T13:30:29.294Z,19.84
2024-05-09T13:33:29.653Z,19.85
2024-05-09T13:36:21.547Z,19.77
2024-05-09T13:39:07.197Z,19.64
2024-05-09T13:41:52.640Z,19.73
2024-05-09T13:44:38.318Z,19.86
2024-05-09T13:47:24.351Z,19.96
2024-05-09T13:50:14.211Z,19.88
2024-05-09T13:53:07.465Z,19.93
2024-05-09T13:55:54.116Z,20.12
2024-05-09T13:58:39.624Z,20.40
2024-05-09T14:01:25.537Z,20.33
2024-05-09T14:04:11.767Z,20.41
2024-05-09T14:06:57.417Z,20.24
2024-05-09T14:09:42.758Z,20.06
2024-05-09T14:12:28.071Z,19.90
2024-05-09T14:15:13.744Z,19.71
2024-05-09T14:17:59.158Z,19.83
2024-05-09T14:20:44.737Z,19.94
2024-05-09T14:23:30.093Z,20.04
2024-05-09T14:26:15.589Z,20.07
2024-05-09T14:29:01.202Z,19.92
2024-05-09T14:31:53.548Z,19.98
2024-05-09T14:34:45.857Z,19.96
2024-05-09T14:37:31.335Z,19.94
2024-05-09T14:40:30.602Z,20.15
2024-05-09T14:43:22.229Z,20.36
2024-05-09T14:46:07.900Z,20.30
2024-05-09T14:48:53.458Z,20.30
2024-05-09T14:51:40.155Z,20.29
2024-05-09T14:54:25.905Z,20.27
2024-05-09T14:57:11.562Z,20.40
2024-05-09T14:59:57.324Z,20.48
2024-05-09T15:02:42.874Z,20.57
2024-05-09T15:05:28.400Z,20.29
2024-05-09T15:08:14.247Z,20.14
2024-05-09T15:10:59.872Z,20.18
2024-05-09T15:13:45.151Z,20.18
2024-05-09T15:16:31.288Z,20.34
2024-05-09T15:19:17.210Z,20.38
2024-05-09T15:22:03.285Z,20.31
2024-05-09T15:24:48.625Z,20.21
2024-05-09T15:27:34.296Z,20.08
2024-05-09T15:30:28.155Z,19.91
2024-05-09T15:33:17.451Z,19.87
2024-05-09T15:36:10.204Z,19.88
2024-05-09T15:39:03.088Z,19.83
2024-05-09T15:41:56.447Z,19.76
2024-05-09T15:44:42.089Z,19.63
2024-05-09T15:47:28.143Z,19.75
2024-05-09T15:50:20.487Z,19.94
2024-05-09T15:53:14.045Z,19.86
2024-05-09T15:56:28.483Z,19.77
2024-05-09T15:59:16.530Z,19.63
2024-05-09T16:02:11.556Z,19.65
2024-05-09T16:04:57.496Z,19.55
2024-05-09T16:07:42.758Z,19.48
2024-05-09T16:10:32.748Z,19.57
2024-05-09T16:24:11.175Z,20.03
2024-05-09T16:26:57.565Z,19.96
2024-05-09T16:29:44.188Z,20.01
2024-05-09T16:32:29.975Z,20.07
2024-05-09T16:35:16.138Z,19.90
2024-05-09T16:38:03.116Z,19.82
2024-05-09T16:40:48.725Z,19.90
2024-05-09T16:43:34.507Z,19.91
2024-05-09T16:46:20.276Z,19.76
2024-05-09T16:49:05.909Z,19.54
2024-05-09T16:51:51.332Z,19.36
2024-05-09T16:54:37.062Z,19.34
2024-05-09T16:57:22.566Z,19.31
2024-05-09T17:00:14.856Z,18.99
2024-05-09T17:03:07.968Z,18.83
2024-05-09T17:05:53.730Z,18.76
2024-05-09T17:08:40.498Z,18.84
2024-05-09T17:11:26.131Z,18.81
2024-05-09T17:14:11.734Z,18.80
2024-05-09T17:16:57.369Z,18.76
2024-05-09T17:19:44.968Z,18.65
2024-05-09T17:22:31.798Z,18.53
2024-05-09T17:25:17.263Z,18.38
2024-05-09T17:28:07.680Z,18.26
2024-05-09T17:30:53.676Z,18.12
2024-05-09T17:33:39.156Z,18.00
2024-05-09T17:36:25.079Z,17.80
2024-05-09T17:39:10.925Z,17.66
2024-05-09T17:41:56.307Z,17.56
2024-05-09T17:44:41.671Z,17.43
2024-05-09T17:47:27.265Z,17.24
2024-05-09T17:50:17.370Z,16.98
2024-05-09T17:53:10.714Z,16.83
2024-05-09T17:55:56.827Z,16.71
2024-05-09T17:58:42.934Z,16.52
2024-05-09T18:01:28.323Z,16.34
2024-05-09T18:04:14.127Z,16.19
2024-05-09T18:07:00.070Z,15.99
2024-05-09T18:09:45.949Z,15.80
2024-05-09T18:12:31.551Z,15.65
2024-05-09T18:15:17.094Z,15.52
2024-05-09T18:18:03.643Z,15.37
2024-05-09T18:20:49.495Z,15.20
2024-05-09T18:23:34.994Z,15.08
2024-05-09T18:26:20.504Z,14.96
2024-05-09T18:29:06.026Z,14.80
2024-05-09T18:31:51.561Z,14.61
2024-05-09T18:34:37.249Z,14.49
2024-05-09T18:37:23.091Z,14.41
2024-05-09T18:40:12.205Z,14.26
2024-05-09T18:43:06.747Z,14.14
2024-05-09T18:45:53.902Z,14.01
2024-05-09T18:48:39.728Z,13.86
2024-05-09T18:51:25.244Z,13.72
2024-05-09T18:54:10.691Z,13.63
2024-05-09T18:56:56.272Z,13.50
2024-05-09T18:59:41.847Z,13.36
2024-05-09T19:02:27.288Z,13.25
2024-05-09T19:05:13.120Z,13.14
2024-05-09T19:07:58.874Z,13.07
2024-05-09T19:10:47.457Z,12.93
2024-05-09T19:13:33.280Z,12.79
2024-05-09T19:16:19.310Z,12.68
2024-05-09T19:19:05.604Z,12.57
2024-05-09T19:21:51.028Z,12.42
2024-05-09T19:24:36.864Z,12.26
2024-05-09T19:27:22.208Z,12.17
2024-05-09T19:30:17.394Z,12.11
2024-05-09T19:33:12.893Z,12.03
2024-05-09T19:35:59.380Z,11.95
2024-05-09T19:38:45.176Z,11.85
2024-05-09T19:41:30.704Z,11.77
2024-05-09T19:44:16.442Z,11.69
2024-05-09T19:47:02.160Z,11.65
2024-05-09T19:49:47.705Z,11.55
2024-05-09T19:52:33.557Z,11.47
2024-05-09T19:55:19.252Z,11.38
2024-05-09T19:58:07.152Z,11.31
2024-05-09T20:00:53.167Z,11.23
2024-05-09T20:03:38.917Z,11.14
2024-05-09T20:06:25.241Z,11.05
2024-05-09T20:09:10.988Z,10.92
2024-05-09T20:11:56.698Z,10.84
2024-05-09T20:14:42.358Z,10.79
2024-05-09T20:17:28.032Z,10.72
2024-05-09T20:20:20.320Z,10.65
2024-05-09T20:23:14.355Z,10.58
2024-05-09T20:25:59.753Z,10.48
2024-05-09T20:28:46.368Z,10.41
2024-05-09T20:31:31.713Z,10.34
2024-05-09T20:34:17.708Z,10.24
2024-05-09T20:37:10.306Z,10.19
2024-05-09T20:39:56.252Z,10.12
2024-05-09T20:42:44.870Z,10.05
2024-05-09T20:45:30.278Z,10.00
2024-05-09T20:48:15.853Z,9.90
2024-05-09T20:51:01.331Z,9.82
2024-05-09T20:53:47.132Z,9.74
2024-05-09T20:56:32.877Z,9.70
2024-05-09T20:59:18.600Z,9.63
2024-05-09T21:02:04.157Z,9.59
2024-05-09T21:04:49.598Z,9.52
2024-05-09T21:07:35.436Z,9.48
2024-05-09T21:10:22.828Z,9.41
2024-05-09T21:13:08.659Z,9.36
2024-05-09T21:15:54.140Z,9.29
2024-05-09T21:18:39.842Z,9.23
2024-05-09T21:21:25.481Z,9.16
2024-05-09T21:24:10.905Z,9.15
2024-05-09T21:26:56.510Z,9.09
2024-05-09T21:29:41.969Z,9.04
2024-05-09T21:32:27.424Z,8.99
2024-05-09T21:35:12.819Z,8.92
2024-05-09T21:37:58.251Z,8.87
2024-05-09T21:40:44.227Z,8.83
2024-05-09T21:43:31.629Z,8.78
2024-05-09T21:46:17.093Z,8.76
2024-05-09T21:49:03.298Z,8.71
2024-05-09T21:51:49.627Z,8.66
2024-05-09T21:54:35.304Z,8.61
2024-05-09T21:57:21.910Z,8.54
2024-05-09T22:00:25.117Z,8.48
2024-05-09T22:03:18.164Z,8.44
2024-05-09T22:06:03.735Z,8.40
2024-05-09T22:08:49.168Z,8.35
2024-05-09T22:11:35.022Z,8.31
2024-05-09T22:14:21.590Z,8.25
2024-05-09T22:17:07.026Z,8.20
2024-05-09T22:19:53.063Z,8.14
2024-05-09T22:22:38.656Z,8.10
2024-05-09T22:25:26.077Z,8.07
2024-05-09T22:28:15.500Z,8.02
2024-05-09T22:31:00.998Z,7.93
2024-05-09T22:33:48.255Z,7.91
2024-05-09T22:36:34.071Z,7.87
2024-05-09T22:39:19.623Z,7.82
2024-05-09T22:42:05.219Z,7.75
2024-05-09T22:44:50.519Z,7.72
2024-05-09T22:47:35.930Z,7.67
2024-05-09T22:50:26.811Z,7.63
2024-05-09T22:53:16.448Z,7.59
2024-05-09T22:56:01.864Z,7.58
2024-05-09T22:58:47.333Z,7.57
2024-05-09T23:01:33.367Z,7.51
2024-05-09T23:04:51.099Z,7.45
2024-05-09T23:07:38.797Z,7.45
2024-05-09T23:10:31.593Z,7.42
2024-05-09T23:13:21.235Z,7.38
2024-05-09T23:16:07.180Z,7.33
2024-05-09T23:18:52.556Z,7.28
2024-05-09T23:21:40.147Z,7.17
2024-05-09T23:24:25.716Z,7.14
2024-05-09T23:27:11.468Z,7.09
2024-05-09T23:29:57.356Z,7.07
2024-05-09T23:32:42.997Z,6.99
2024-05-09T23:35:28.769Z,6.95
2024-05-09T23:38:14.534Z,6.93
2024-05-09T23:41:00.031Z,6.92
2024-05-09T23:43:45.484Z,6.94
2024-05-09T23:46:31.285Z,6.97
2024-05-09T23:49:16.659Z,6.97
2024-05-09T23:52:02.112Z,6.98
2024-05-09T23:54:47.598Z,6.95
2024-05-09T23:57:33.336Z,6.79
